createdAt,value
2022-08-17T00:00:34.398Z,100956.29
2022-08-17T00:03:22.513Z,100952.13
2022-08-17T00:06:02.493Z,100951.61
2022-08-17T00:08:35.963Z,100946.80
2022-08-17T00:11:08.241Z,100933.07
2022-08-17T00:13:39.224Z,100928.40
2022-08-17T00:16:12.277Z,100938.96
2022-08-17T00:19:01.115Z,100940.85
2022-08-17T00:22:29.598Z,100943.54
2022-08-17T00:24:18.382Z,100932.55
2022-08-17T00:26:46.405Z,100935.46
2022-08-17T00:29:19.326Z,100924.21
2022-08-17T00:31:47.521Z,100924.73
2022-08-17T00:34:15.229Z,100915.02
2022-08-17T00:36:42.873Z,100903.74
2022-08-17T00:39:10.562Z,100895.01
2022-08-17T00:41:42.244Z,100901.62
2022-08-17T00:44:10.801Z,100894.78
2022-08-17T00:46:43.164Z,100893.24
2022-08-17T00:49:13.658Z,100901.13
2022-08-17T00:51:53.040Z,100885.85
2022-08-17T00:54:41.993Z,100901.13
2022-08-17T00:57:14.762Z,100904.85
2022-08-17T01:00:01.731Z,100898.34
2022-08-17T01:02:41.996Z,100900.30
2022-08-17T01:05:15.910Z,100897.95
2022-08-17T01:07:48.848Z,100893.80
2022-08-17T01:10:59.503Z,100894.91
2022-08-17T01:13:08.483Z,100894.98
2022-08-17T01:15:46.091Z,100894.75
2022-08-17T01:18:15.525Z,100900.80
2022-08-17T01:20:51.606Z,100909.00
2022-08-17T01:23:22.293Z,100908.22
2022-08-17T01:25:56.314Z,100905.11
2022-08-17T01:28:52.568Z,100903.51
2022-08-17T01:31:14.329Z,100906.20
2022-08-17T01:33:42.122Z,100903.28
2022-08-17T01:36:10.458Z,100903.05
2022-08-17T01:38:40.226Z,100896.22
2022-08-17T01:41:13.347Z,100882.06
2022-08-17T01:43:46.438Z,100886.21
2022-08-17T01:46:22.877Z,100896.16
2022-08-17T01:48:52.246Z,100885.49
2022-08-17T01:51:21.082Z,100886.51
2022-08-17T01:53:53.047Z,100880.95
2022-08-17T01:56:24.093Z,100886.96
2022-08-17T01:58:52.472Z,100890.66
2022-08-17T02:01:24.719Z,100902.04
2022-08-17T02:03:56.215Z,100908.91
2022-08-17T02:06:45.303Z,100914.27
2022-08-17T02:09:25.935Z,100935.42
2022-08-17T02:11:56.223Z,100925.16
2022-08-17T02:14:25.047Z,100918.42
2022-08-17T02:16:53.286Z,100913.71
2022-08-17T02:19:21.409Z,100913.02
2022-08-17T02:21:51.138Z,100915.71
2022-08-17T02:24:58.271Z,100919.14
2022-08-17T02:27:11.956Z,100931.50
2022-08-17T02:29:39.724Z,100932.35
2022-08-17T02:32:07.693Z,100936.38
2022-08-17T02:34:35.381Z,100939.58
2022-08-17T02:37:03.086Z,100949.03
2022-08-17T02:39:30.792Z,100955.93
2022-08-17T02:42:03.867Z,100953.02
2022-08-17T02:44:38.963Z,100955.18
2022-08-17T02:47:11.389Z,100956.48
2022-08-17T02:49:39.336Z,100962.60
2022-08-17T02:52:08.747Z,100957.50
2022-08-17T02:54:41.067Z,100955.93
2022-08-17T02:57:10.108Z,100970.58
2022-08-17T02:59:42.380Z,100973.26
2022-08-17T03:02:14.524Z,100979.60
2022-08-17T03:04:42.199Z,100991.51
2022-08-17T03:07:09.968Z,101001.55
2022-08-17T03:09:37.618Z,101007.34
2022-08-17T03:12:14.663Z,101015.25
2022-08-17T03:14:44.054Z,101022.15
2022-08-17T03:17:17.070Z,101024.77
2022-08-17T03:19:45.689Z,101024.53
2022-08-17T03:22:37.376Z,101024.05
2022-08-17T03:25:01.146Z,101012.23
2022-08-17T03:27:29.964Z,101001.97
2022-08-17T03:29:57.799Z,101006.68
2022-08-17T03:32:25.444Z,101019.37
2022-08-17T03:34:53.102Z,101014.85
2022-08-17T03:37:20.768Z,101009.03
2022-08-17T03:39:48.662Z,101010.05
2022-08-17T03:42:32.224Z,101011.13
2022-08-17T03:45:02.087Z,101000.86
2022-08-17T03:47:48.649Z,101004.00
2022-08-17T03:50:36.867Z,100999.78
2022-08-17T03:53:27.238Z,100993.70
2022-08-17T03:56:13.815Z,101000.99
2022-08-17T03:58:41.491Z,101001.09
2022-08-17T04:01:09.407Z,101005.01
2022-08-17T04:03:37.303Z,101008.02
2022-08-17T04:06:05.010Z,101007.79
2022-08-17T04:08:32.837Z,101008.48
2022-08-17T04:11:01.954Z,101006.38
2022-08-17T04:13:29.630Z,101023.23
2022-08-17T04:15:58.377Z,101026.85
2022-08-17T04:18:27.123Z,101034.60
2022-08-17T04:20:55.055Z,101034.67
2022-08-17T04:23:24.671Z,101033.43
2022-08-17T04:25:52.465Z,101041.96
2022-08-17T04:28:20.832Z,101054.39
2022-08-17T04:30:49.033Z,101052.88
2022-08-17T04:33:20.102Z,101053.48
2022-08-17T04:35:51.159Z,101048.73
2022-08-17T04:38:26.319Z,101048.80
2022-08-17T04:41:13.393Z,101055.70
2022-08-17T04:43:43.006Z,101050.14
2022-08-17T04:46:16.600Z,101056.48
2022-08-17T04:48:51.481Z,101056.41
2022-08-17T04:51:23.373Z,101064.04
2022-08-17T04:53:54.709Z,101065.60
2022-08-17T04:56:24.120Z,101066.91
2022-08-17T04:58:54.384Z,101066.12
2022-08-17T05:01:24.524Z,101071.16
2022-08-17T05:03:54.368Z,101066.91
2022-08-17T05:06:23.158Z,101084.57
2022-08-17T05:08:50.910Z,101086.14
2022-08-17T05:11:18.688Z,101086.92
2022-08-17T05:13:46.477Z,101085.29
2022-08-17T05:16:14.235Z,101082.87
2022-08-17T05:18:41.989Z,101080.42
2022-08-17T05:21:09.822Z,101083.30
2022-08-17T05:23:43.023Z,101086.11
2022-08-17T05:26:25.925Z,101091.05
2022-08-17T05:28:57.170Z,101092.55
2022-08-17T05:31:29.885Z,101094.84
2022-08-17T05:33:57.971Z,101090.03
2022-08-17T05:36:43.022Z,101096.51
2022-08-17T05:39:15.930Z,101101.18
2022-08-17T05:41:44.524Z,101101.54
2022-08-17T05:44:12.244Z,101120.67
2022-08-17T05:46:44.638Z,101125.55
2022-08-17T05:49:15.891Z,101128.75
2022-08-17T05:52:02.188Z,101128.26
2022-08-17T05:54:32.843Z,101127.57
2022-08-17T05:57:21.876Z,101128.95
2022-08-17T06:00:12.000Z,101123.71
2022-08-17T06:03:16.503Z,101126.88
2022-08-17T06:06:21.981Z,101120.73
2022-08-17T06:09:10.625Z,101117.08
2022-08-17T06:11:48.205Z,101124.01
2022-08-17T06:14:27.148Z,101117.44
2022-08-17T06:17:01.838Z,101110.14
2022-08-17T06:19:49.744Z,101106.58
2022-08-17T06:22:21.622Z,101104.84
2022-08-17T06:24:57.971Z,101105.30
2022-08-17T06:27:44.165Z,101107.88
2022-08-17T06:30:29.363Z,101095.10
2022-08-17T06:33:29.413Z,101102.69
2022-08-17T06:36:07.966Z,101105.07
2022-08-17T06:38:50.981Z,101101.34
2022-08-17T06:41:44.639Z,101123.32
2022-08-17T06:44:43.211Z,101121.39
2022-08-17T06:47:46.009Z,101124.17
2022-08-17T06:50:37.046Z,101127.77
2022-08-17T06:53:13.014Z,101112.07
2022-08-17T06:55:56.698Z,101110.38
2022-08-17T06:58:29.703Z,101114.49
2022-08-17T07:01:02.031Z,101117.83
2022-08-17T07:03:47.702Z,101117.70
2022-08-17T07:06:38.377Z,101106.19
2022-08-17T07:09:16.919Z,101106.68
2022-08-17T07:11:53.042Z,101108.54
2022-08-17T07:14:55.162Z,101121.49
2022-08-17T07:17:47.029Z,101110.66
2022-08-17T07:20:18.838Z,101107.27
2022-08-17T07:22:59.655Z,101109.23
2022-08-17T07:25:29.633Z,101118.84
2022-08-17T07:28:01.439Z,101118.32
2022-08-17T07:30:37.110Z,101100.13
2022-08-17T07:33:15.532Z,101089.48
2022-08-17T07:35:46.061Z,101089.73
2022-08-17T07:38:24.763Z,101091.34
2022-08-17T07:41:03.357Z,101087.87
2022-08-17T07:43:42.384Z,101089.48
2022-08-17T07:46:37.854Z,101093.83
2022-08-17T07:49:06.152Z,101103.18
2022-08-17T07:51:43.913Z,101107.27
2022-08-17T07:54:17.646Z,101105.92
2022-08-17T07:56:54.577Z,101107.10
2022-08-17T07:59:33.909Z,101108.28
2022-08-17T08:02:10.463Z,101094.91
2022-08-17T08:05:00.706Z,101096.90
2022-08-17T08:07:56.079Z,101092.42
2022-08-17T08:10:37.837Z,101093.01
2022-08-17T08:13:12.174Z,101086.40
2022-08-17T08:15:53.725Z,101090.91
2022-08-17T08:18:56.777Z,101075.35
2022-08-17T08:21:37.984Z,101082.94
2022-08-17T08:24:32.987Z,101079.05
2022-08-17T08:27:20.876Z,101077.70
2022-08-17T08:30:08.842Z,101081.59
2022-08-17T08:32:57.354Z,101078.33
2022-08-17T08:35:39.193Z,101078.49
2022-08-17T08:38:16.012Z,101072.67
2022-08-17T08:40:52.691Z,101085.52
2022-08-17T08:43:53.232Z,101093.14
2022-08-17T08:46:27.011Z,101107.76
2022-08-17T08:49:14.751Z,101113.61
2022-08-17T08:51:58.326Z,101109.33
2022-08-17T08:54:50.316Z,101105.80
2022-08-17T08:57:35.489Z,101110.66
2022-08-17T09:00:16.956Z,101108.12
2022-08-17T09:02:56.337Z,101101.51
2022-08-17T09:05:58.205Z,101118.68
2022-08-17T09:08:35.047Z,101106.74
2022-08-17T09:11:15.727Z,101104.39
2022-08-17T09:13:54.660Z,101119.43
2022-08-17T09:16:30.680Z,101125.05
2022-08-17T09:19:22.133Z,101125.09
2022-08-17T09:22:18.662Z,101127.60
2022-08-17T09:24:55.752Z,101115.11
2022-08-17T09:27:31.646Z,101113.51
2022-08-17T09:30:03.673Z,101116.23
2022-08-17T09:32:53.195Z,101117.56
2022-08-17T09:35:32.790Z,101122.41
2022-08-17T09:38:42.813Z,101122.60
2022-08-17T09:41:21.373Z,101119.43
2022-08-17T09:44:22.658Z,101114.72
2022-08-17T09:46:54.847Z,101122.90
2022-08-17T09:49:46.328Z,101119.01
2022-08-17T09:52:24.633Z,101126.00
2022-08-17T09:54:55.522Z,101123.84
2022-08-17T09:57:38.421Z,101114.46
2022-08-17T10:00:17.380Z,101114.27
2022-08-17T10:03:22.114Z,101116.20
2022-08-17T10:06:07.634Z,101115.02
2022-08-17T10:09:07.591Z,101105.01
2022-08-17T10:12:10.499Z,101105.99
2022-08-17T10:14:55.046Z,101111.41
2022-08-17T10:17:41.462Z,101109.20
2022-08-17T10:20:31.350Z,101108.37
2022-08-17T10:23:20.204Z,101091.18
2022-08-17T10:26:16.565Z,101102.66
2022-08-17T10:29:10.562Z,101110.60
2022-08-17T10:31:47.166Z,101111.74
2022-08-17T10:34:23.684Z,101105.47
2022-08-17T10:37:07.914Z,101112.66
2022-08-17T10:39:52.214Z,101110.44
2022-08-17T10:42:36.443Z,101106.84
2022-08-17T10:45:19.419Z,101098.77
2022-08-17T10:48:24.085Z,101096.93
2022-08-17T10:50:58.751Z,101109.55
2022-08-17T10:53:32.498Z,101108.87
2022-08-17T10:56:15.362Z,101113.12
2022-08-17T10:58:56.625Z,101115.44
2022-08-17T11:01:33.487Z,101117.60
2022-08-17T11:04:38.869Z,101123.74
2022-08-17T11:07:26.874Z,101109.39
2022-08-17T11:10:17.972Z,101111.09
2022-08-17T11:12:57.026Z,101113.61
2022-08-17T11:15:27.393Z,101096.96
2022-08-17T11:18:04.454Z,101096.70
2022-08-17T11:20:50.329Z,101102.16
2022-08-17T11:23:27.081Z,101117.99
2022-08-17T11:25:57.726Z,101118.58
2022-08-17T11:28:37.002Z,101110.70
2022-08-17T11:31:11.057Z,101114.43
2022-08-17T11:33:42.434Z,101120.12
2022-08-17T11:36:15.858Z,101112.10
2022-08-17T11:38:55.096Z,101106.55
2022-08-17T11:42:06.683Z,101105.34
2022-08-17T11:44:54.696Z,101108.02
2022-08-17T11:48:26.574Z,101096.60
2022-08-17T11:51:32.407Z,101094.52
2022-08-17T11:54:33.600Z,101092.52
2022-08-17T11:57:27.698Z,101088.69
2022-08-17T12:00:12.624Z,101072.34
2022-08-17T12:02:48.478Z,101083.66
2022-08-17T12:05:17.925Z,101065.15
2022-08-17T12:08:05.560Z,101059.59
2022-08-17T12:10:39.510Z,101045.56
2022-08-17T12:13:13.790Z,101053.34
2022-08-17T12:15:49.871Z,101061.88
2022-08-17T12:18:30.206Z,101061.09
2022-08-17T12:21:23.646Z,101055.11
2022-08-17T12:24:10.049Z,101063.22
2022-08-17T12:26:38.156Z,101065.05
2022-08-17T12:29:17.808Z,101060.73
2022-08-17T12:32:03.533Z,101054.84
2022-08-17T12:34:39.379Z,101053.60
2022-08-17T12:37:16.276Z,101041.08
2022-08-17T12:39:55.717Z,101043.37
2022-08-17T12:42:30.479Z,101052.20
2022-08-17T12:44:58.967Z,101053.60
2022-08-17T12:47:29.420Z,101053.44
2022-08-17T12:50:28.253Z,101043.83
2022-08-17T12:53:02.006Z,101035.00
2022-08-17T12:55:36.750Z,101035.33
2022-08-17T12:58:04.600Z,101037.98
2022-08-17T13:00:35.880Z,101038.62
2022-08-17T13:03:14.275Z,101019.89
2022-08-17T13:05:54.840Z,101022.54
2022-08-17T13:08:30.110Z,101031.20
2022-08-17T13:11:01.205Z,101017.08
2022-08-17T13:13:32.355Z,101013.02
2022-08-17T13:16:06.729Z,101006.35
2022-08-17T13:18:46.233Z,101000.01
2022-08-17T13:21:28.764Z,101003.12
2022-08-17T13:24:11.718Z,100987.22
2022-08-17T13:26:44.830Z,100981.04
2022-08-17T13:29:26.790Z,100975.74
2022-08-17T13:32:18.013Z,100984.12
2022-08-17T13:35:12.622Z,100987.22
2022-08-17T13:37:42.708Z,100970.02
2022-08-17T13:40:10.504Z,100972.97
2022-08-17T13:42:52.086Z,100959.03
2022-08-17T13:45:36.720Z,100962.14
2022-08-17T13:48:11.134Z,100954.85
2022-08-17T13:50:56.879Z,100960.73
2022-08-17T13:53:40.397Z,100946.15
2022-08-17T13:56:33.531Z,100942.45
2022-08-17T13:59:10.889Z,100933.62
2022-08-17T14:01:53.877Z,100937.16
2022-08-17T14:04:29.149Z,100940.73
2022-08-17T14:07:02.716Z,100938.23
2022-08-17T14:09:37.209Z,100938.56
2022-08-17T14:12:10.730Z,100944.29
2022-08-17T14:14:39.124Z,100951.58
2022-08-17T14:17:06.937Z,100948.02
2022-08-17T14:19:36.309Z,100933.13
2022-08-17T14:22:06.068Z,100935.46
2022-08-17T14:24:44.157Z,100940.43
2022-08-17T14:27:13.103Z,100946.31
2022-08-17T14:29:42.305Z,100941.21
2022-08-17T14:32:20.237Z,100948.96
2022-08-17T14:34:50.595Z,100937.20
2022-08-17T14:37:22.264Z,100929.73
2022-08-17T14:39:50.042Z,100924.30
2022-08-17T14:42:18.667Z,100932.22
2022-08-17T14:44:46.379Z,100921.82
2022-08-17T14:47:16.867Z,100923.06
2022-08-17T14:49:47.579Z,100932.77
2022-08-17T14:52:17.903Z,100931.70
2022-08-17T14:54:46.016Z,100926.47
2022-08-17T14:57:24.837Z,100927.84
2022-08-17T15:00:02.374Z,100933.40
2022-08-17T15:02:31.261Z,100933.86
2022-08-17T15:05:04.715Z,100925.19
2022-08-17T15:07:32.543Z,100929.96
2022-08-17T15:10:02.318Z,100946.67
2022-08-17T15:12:33.970Z,100944.98
2022-08-17T15:15:04.875Z,100946.05
2022-08-17T15:17:44.906Z,100950.08
2022-08-17T15:20:29.446Z,100936.44
2022-08-17T15:22:59.848Z,100940.88
2022-08-17T15:25:31.448Z,100947.16
2022-08-17T15:28:00.151Z,100938.20
2022-08-17T15:30:28.785Z,100926.14
2022-08-17T15:32:58.464Z,100931.21
2022-08-17T15:35:29.472Z,100931.21
2022-08-17T15:38:11.181Z,100936.51
2022-08-17T15:40:44.113Z,100932.32
2022-08-17T15:43:29.086Z,100932.94
2022-08-17T15:46:13.295Z,100927.09
2022-08-17T15:48:43.646Z,100915.91
2022-08-17T15:51:17.613Z,100907.70
2022-08-17T15:53:48.975Z,100906.78
2022-08-17T15:56:17.383Z,100909.52
2022-08-17T15:58:47.817Z,100910.77
2022-08-17T16:01:31.342Z,100905.96
2022-08-17T16:04:21.281Z,100905.63
2022-08-17T16:06:54.699Z,100897.88
2022-08-17T16:09:22.393Z,100885.49
2022-08-17T16:11:52.106Z,100885.91
2022-08-17T16:14:23.199Z,100889.16
2022-08-17T16:16:52.106Z,100872.61
2022-08-17T16:19:19.847Z,100873.63
2022-08-17T16:21:47.617Z,100867.45
2022-08-17T16:24:15.322Z,100868.29
2022-08-17T16:26:43.498Z,100876.17
2022-08-17T16:29:11.237Z,100884.05
2022-08-17T16:31:39.714Z,100876.44
2022-08-17T16:34:16.775Z,100892.36
2022-08-17T16:36:51.874Z,100886.15
2022-08-17T16:39:28.469Z,100892.46
2022-08-17T16:41:56.994Z,100891.34
2022-08-17T16:44:24.974Z,100885.91
2022-08-17T16:46:52.719Z,100882.81
2022-08-17T16:49:35.195Z,100889.13
2022-08-17T16:52:11.359Z,100891.73
2022-08-17T16:54:44.553Z,100892.16
2022-08-17T16:57:14.242Z,100886.57
2022-08-17T16:59:47.794Z,100881.27
2022-08-17T17:02:24.559Z,100880.33
2022-08-17T17:05:29.470Z,100882.35
2022-08-17T17:08:10.160Z,100869.01
2022-08-17T17:10:56.963Z,100865.32
2022-08-17T17:13:40.413Z,100854.03
2022-08-17T17:16:25.062Z,100864.37
2022-08-17T17:19:34.628Z,100846.77
2022-08-17T17:22:25.629Z,100849.09
2022-08-17T17:25:17.916Z,100852.62
2022-08-17T17:28:05.659Z,100850.30
2022-08-17T17:31:04.653Z,100843.67
2022-08-17T17:33:43.203Z,100851.88
2022-08-17T17:36:37.500Z,100857.57
2022-08-17T17:39:14.459Z,100867.15
2022-08-17T17:42:12.575Z,100864.20
2022-08-17T17:44:51.453Z,100861.10
2022-08-17T17:47:19.189Z,100869.14
2022-08-17T17:49:49.851Z,100869.14
2022-08-17T17:52:42.077Z,100872.05
2022-08-17T17:55:31.068Z,100865.22
2022-08-17T17:58:40.573Z,100870.32
2022-08-17T18:01:20.210Z,100870.32
2022-08-17T18:04:32.151Z,100865.48
2022-08-17T18:07:39.123Z,100865.32
2022-08-17T18:10:29.472Z,100866.95
2022-08-17T18:13:01.668Z,100879.12
2022-08-17T18:16:01.722Z,100880.59
2022-08-17T18:18:38.689Z,100873.43
2022-08-17T18:21:16.891Z,100875.06
2022-08-17T18:23:49.828Z,100882.74
2022-08-17T18:26:35.861Z,100888.86
2022-08-17T18:29:33.007Z,100888.89
2022-08-17T18:32:18.641Z,100878.20
2022-08-17T18:34:49.164Z,100885.07
2022-08-17T18:37:48.891Z,100888.44
2022-08-17T18:40:20.342Z,100898.84
2022-08-17T18:42:57.836Z,100899.26
2022-08-17T18:45:53.530Z,100908.48
2022-08-17T18:48:34.921Z,100924.73
2022-08-17T18:51:41.780Z,100923.42
2022-08-17T18:54:22.883Z,100925.62
2022-08-17T18:56:55.452Z,100942.45
2022-08-17T18:59:46.690Z,100943.44
2022-08-17T19:02:27.402Z,100945.86
2022-08-17T19:05:14.373Z,100945.27
2022-08-17T19:07:47.986Z,100945.10
2022-08-17T19:10:46.343Z,100937.32
2022-08-17T19:13:23.958Z,100938.47
2022-08-17T19:16:07.799Z,100943.17
2022-08-17T19:19:04.953Z,100930.12
2022-08-17T19:21:57.167Z,100940.49
2022-08-17T19:24:27.744Z,100949.91
2022-08-17T19:27:19.031Z,100953.05
2022-08-17T19:30:07.152Z,100944.48
2022-08-17T19:32:36.856Z,100950.37
2022-08-17T19:35:11.398Z,100965.38
2022-08-17T19:38:03.767Z,100967.15
2022-08-17T19:41:02.358Z,100980.23
2022-08-17T19:44:10.593Z,100979.84
2022-08-17T19:47:00.653Z,100985.69
2022-08-17T19:49:52.054Z,100990.76
2022-08-17T19:52:51.436Z,100991.34
2022-08-17T19:56:00.851Z,100994.25
2022-08-17T19:58:51.905Z,100998.54
2022-08-17T20:01:46.298Z,101007.14
2022-08-17T20:04:40.215Z,101011.42
2022-08-17T20:07:13.163Z,101020.02
2022-08-17T20:09:47.681Z,101020.58
2022-08-17T20:12:19.410Z,101027.02
2022-08-17T20:14:56.120Z,101026.79
2022-08-17T20:17:28.642Z,101032.45
2022-08-17T20:20:20.726Z,101035.98
2022-08-17T20:23:00.469Z,101032.28
2022-08-17T20:25:58.511Z,101049.62
2022-08-17T20:28:31.538Z,101053.93
2022-08-17T20:30:59.688Z,101058.97
2022-08-17T20:33:38.088Z,101071.27
2022-08-17T20:36:21.448Z,101072.60
2022-08-17T20:38:58.507Z,101092.88
2022-08-17T20:41:29.496Z,101123.29
2022-08-17T20:44:00.251Z,101141.21
2022-08-17T20:46:37.053Z,101157.75
2022-08-17T20:49:29.885Z,101163.80
2022-08-17T20:52:11.320Z,101182.05
2022-08-17T20:54:55.680Z,101198.17
2022-08-17T20:57:32.624Z,101228.95
2022-08-17T21:00:18.370Z,101248.79
2022-08-17T21:02:50.651Z,101272.59
2022-08-17T21:05:34.267Z,101294.18
2022-08-17T21:08:17.146Z,101301.63
2022-08-17T21:10:48.110Z,101311.22
2022-08-17T21:13:15.905Z,101333.29
2022-08-17T21:15:43.637Z,101328.38
2022-08-17T21:18:40.247Z,101332.83
2022-08-17T21:21:18.716Z,101316.80
2022-08-17T21:24:20.430Z,101323.94
2022-08-17T21:27:02.489Z,101327.44
2022-08-17T21:29:34.010Z,101338.06
2022-08-17T21:32:06.701Z,101350.81
2022-08-17T21:35:07.451Z,101355.98
2022-08-17T21:37:47.561Z,101350.26
2022-08-17T21:40:19.301Z,101339.80
2022-08-17T21:42:51.657Z,101331.78
2022-08-17T21:45:25.521Z,101332.86
2022-08-17T21:48:16.022Z,101330.54
2022-08-17T21:51:04.832Z,101330.64
2022-08-17T21:53:43.350Z,101328.02
2022-08-17T21:56:13.825Z,101347.52
2022-08-17T21:58:48.418Z,101355.95
2022-08-17T22:01:29.414Z,101366.48
2022-08-17T22:04:19.007Z,101367.27
2022-08-17T22:06:57.169Z,101381.23
2022-08-17T22:09:43.067Z,101392.02
2022-08-17T22:12:18.269Z,101402.02
2022-08-17T22:14:59.334Z,101393.06
2022-08-17T22:17:30.886Z,101396.20
2022-08-17T22:20:08.081Z,101400.91
2022-08-17T22:23:00.291Z,101404.38
2022-08-17T22:25:29.405Z,101398.55
2022-08-17T22:28:01.153Z,101387.96
2022-08-17T22:30:34.194Z,101394.99
2022-08-17T22:33:23.651Z,101385.09
2022-08-17T22:36:10.244Z,101383.29
2022-08-17T22:38:38.861Z,101393.06
2022-08-17T22:41:20.023Z,101390.71
2022-08-17T22:43:47.965Z,101393.36
2022-08-17T22:46:16.405Z,101395.78
2022-08-17T22:48:51.355Z,101395.26
2022-08-17T22:51:23.699Z,101406.57
2022-08-17T22:54:17.152Z,101388.88
2022-08-17T22:57:10.552Z,101391.79
2022-08-17T22:59:50.382Z,101398.10
2022-08-17T23:02:20.791Z,101398.39
2022-08-17T23:04:55.646Z,101412.13
2022-08-17T23:07:23.391Z,101408.99
2022-08-17T23:09:53.534Z,101409.28
2022-08-17T23:12:27.381Z,101407.16
2022-08-17T23:15:02.924Z,101408.23
2022-08-17T23:17:37.438Z,101395.32
2022-08-17T23:20:09.393Z,101393.26
2022-08-17T23:22:52.239Z,101401.14
2022-08-17T23:25:28.950Z,101398.49
2022-08-17T23:27:59.472Z,101394.57
2022-08-17T23:30:29.605Z,101387.96
2022-08-17T23:33:01.177Z,101368.44
2022-08-17T23:35:38.983Z,101361.09
2022-08-17T23:38:12.993Z,101367.43
2022-08-17T23:40:41.704Z,101381.91
2022-08-17T23:43:23.607Z,101384.27
2022-08-17T23:45:55.071Z,101384.79
2022-08-17T23:48:28.490Z,101377.89
2022-08-17T23:51:15.759Z,101385.02
2022-08-17T23:53:52.160Z,101390.52
2022-08-17T23:56:25.683Z,101376.81
2022-08-17T23:58:55.902Z,101364.71
